sensor_id;sensor_type;location;lat;lon;timestamp;temperature;humidity
11005;DHT22;5555;59.622;16.556;2023-07-24T00:00:27;11.80;99.90
11005;DHT22;5555;59.622;16.556;2023-07-24T00:02:53;11.80;99.90
11005;DHT22;5555;59.622;16.556;2023-07-24T00:05:19;11.70;99.90
11005;DHT22;5555;59.622;16.556;2023-07-24T00:07:45;11.70;99.90
11005;DHT22;5555;59.622;16.556;2023-07-24T00:10:10;11.70;99.90
11005;DHT22;5555;59.622;16.556;2023-07-24T00:12:36;11.70;99.90
11005;DHT22;5555;59.622;16.556;2023-07-24T00:15:01;11.60;99.90
11005;DHT22;5555;59.622;16.556;2023-07-24T00:17:27;11.60;99.90
11005;DHT22;5555;59.622;16.556;2023-07-24T00:19:53;11.50;99.90
11005;DHT22;5555;59.622;16.556;2023-07-24T00:22:18;11.50;99.90
11005;DHT22;5555;59.622;16.556;2023-07-24T00:24:44;11.50;99.90
11005;DHT22;5555;59.622;16.556;2023-07-24T00:27:09;11.50;99.90
11005;DHT22;5555;59.622;16.556;2023-07-24T00:29:35;11.40;99.90
11005;DHT22;5555;59.622;16.556;2023-07-24T00:32:01;11.40;99.90
11005;DHT22;5555;59.622;16.556;2023-07-24T00:34:26;11.30;99.90
11005;DHT22;5555;59.622;16.556;2023-07-24T00:36:52;11.30;99.90
11005;DHT22;5555;59.622;16.556;2023-07-24T00:39:17;11.30;99.90
11005;DHT22;5555;59.622;16.556;2023-07-24T00:41:43;11.30;99.90
11005;DHT22;5555;59.622;16.556;2023-07-24T00:44:09;11.30;99.90
11005;DHT22;5555;59.622;16.556;2023-07-24T00:46:35;11.30;99.90
11005;DHT22;5555;59.622;16.556;2023-07-24T00:49:02;11.20;99.90
11005;DHT22;5555;59.622;16.556;2023-07-24T00:51:29;11.20;99.90
11005;DHT22;5555;59.622;16.556;2023-07-24T00:53:56;11.20;99.90
11005;DHT22;5555;59.622;16.556;2023-07-24T00:56:23;11.10;99.90
11005;DHT22;5555;59.622;16.556;2023-07-24T00:58:49;11.10;99.90
11005;DHT22;5555;59.622;16.556;2023-07-24T01:01:16;11.10;99.90
11005;DHT22;5555;59.622;16.556;2023-07-24T01:03:42;11.00;99.90
11005;DHT22;5555;59.622;16.556;2023-07-24T01:06:09;11.00;99.90
11005;DHT22;5555;59.622;16.556;2023-07-24T01:08:36;11.00;99.90
11005;DHT22;5555;59.622;16.556;2023-07-24T01:11:27;10.90;99.90
11005;DHT22;5555;59.622;16.556;2023-07-24T01:14:04;10.90;99.90
11005;DHT22;5555;59.622;16.556;2023-07-24T01:16:41;10.90;99.90
11005;DHT22;5555;59.622;16.556;2023-07-24T01:19:41;10.90;99.90
11005;DHT22;5555;59.622;16.556;2023-07-24T01:22:32;10.80;99.90
11005;DHT22;5555;59.622;16.556;2023-07-24T01:27:46;10.80;99.90
11005;DHT22;5555;59.622;16.556;2023-07-24T01:30:13;10.90;99.90
11005;DHT22;5555;59.622;16.556;2023-07-24T01:32:39;10.90;99.90
11005;DHT22;5555;59.622;16.556;2023-07-24T01:35:05;10.80;99.90
11005;DHT22;5555;59.622;16.556;2023-07-24T01:37:32;10.70;99.90
11005;DHT22;5555;59.622;16.556;2023-07-24T01:39:59;10.70;99.90
11005;DHT22;5555;59.622;16.556;2023-07-24T01:42:25;10.70;99.90
11005;DHT22;5555;59.622;16.556;2023-07-24T01:44:52;10.60;99.90
11005;DHT22;5555;59.622;16.556;2023-07-24T01:47:18;10.60;99.90
11005;DHT22;5555;59.622;16.556;2023-07-24T01:49:44;10.60;99.90
11005;DHT22;5555;59.622;16.556;2023-07-24T01:52:09;10.60;99.90
11005;DHT22;5555;59.622;16.556;2023-07-24T01:54:35;10.50;99.90
11005;DHT22;5555;59.622;16.556;2023-07-24T01:57:01;10.50;99.90
11005;DHT22;5555;59.622;16.556;2023-07-24T01:59:26;10.50;99.90
11005;DHT22;5555;59.622;16.556;2023-07-24T02:01:52;10.50;99.90
11005;DHT22;5555;59.622;16.556;2023-07-24T02:04:17;10.50;99.90
11005;DHT22;5555;59.622;16.556;2023-07-24T02:06:43;10.50;99.90
11005;DHT22;5555;59.622;16.556;2023-07-24T02:09:09;10.40;99.90
11005;DHT22;5555;59.622;16.556;2023-07-24T02:11:35;10.40;99.90
11005;DHT22;5555;59.622;16.556;2023-07-24T02:14:00;10.40;99.90
11005;DHT22;5555;59.622;16.556;2023-07-24T02:16:26;10.40;99.90
11005;DHT22;5555;59.622;16.556;2023-07-24T02:18:52;10.30;99.90
11005;DHT22;5555;59.622;16.556;2023-07-24T02:21:17;10.30;99.90
11005;DHT22;5555;59.622;16.556;2023-07-24T02:23:43;10.30;99.90
11005;DHT22;5555;59.622;16.556;2023-07-24T02:26:08;10.30;99.90
11005;DHT22;5555;59.622;16.556;2023-07-24T02:28:34;10.30;99.90
11005;DHT22;5555;59.622;16.556;2023-07-24T02:30:59;10.30;99.90
11005;DHT22;5555;59.622;16.556;2023-07-24T02:33:26;10.30;99.90
11005;DHT22;5555;59.622;16.556;2023-07-24T02:35:52;10.30;99.90
11005;DHT22;5555;59.622;16.556;2023-07-24T02:38:18;10.30;99.90
11005;DHT22;5555;59.622;16.556;2023-07-24T02:40:44;10.20;99.90
11005;DHT22;5555;59.622;16.556;2023-07-24T02:43:10;10.20;99.90
11005;DHT22;5555;59.622;16.556;2023-07-24T02:45:38;10.20;99.90
11005;DHT22;5555;59.622;16.556;2023-07-24T02:48:05;10.20;99.90
11005;DHT22;5555;59.622;16.556;2023-07-24T02:50:30;10.20;99.90
11005;DHT22;5555;59.622;16.556;2023-07-24T02:52:57;10.20;99.90
11005;DHT22;5555;59.622;16.556;2023-07-24T02:55:23;10.20;99.90
11005;DHT22;5555;59.622;16.556;2023-07-24T02:57:48;10.20;99.90
11005;DHT22;5555;59.622;16.556;2023-07-24T03:00:14;10.20;99.90
11005;DHT22;5555;59.622;16.556;2023-07-24T03:02:40;10.20;99.90
11005;DHT22;5555;59.622;16.556;2023-07-24T03:05:06;10.20;99.90
11005;DHT22;5555;59.622;16.556;2023-07-24T03:07:32;10.20;99.90
11005;DHT22;5555;59.622;16.556;2023-07-24T03:09:58;10.30;99.90
11005;DHT22;5555;59.622;16.556;2023-07-24T03:12:23;10.30;99.90
11005;DHT22;5555;59.622;16.556;2023-07-24T03:14:49;10.30;99.90
11005;DHT22;5555;59.622;16.556;2023-07-24T03:17:15;10.30;99.90
11005;DHT22;5555;59.622;16.556;2023-07-24T03:19:41;10.30;99.90
11005;DHT22;5555;59.622;16.556;2023-07-24T03:22:07;10.40;99.90
11005;DHT22;5555;59.622;16.556;2023-07-24T03:24:33;10.40;99.90
11005;DHT22;5555;59.622;16.556;2023-07-24T03:26:59;10.50;99.90
11005;DHT22;5555;59.622;16.556;2023-07-24T03:29:26;10.60;99.90
11005;DHT22;5555;59.622;16.556;2023-07-24T03:31:52;10.60;99.90
11005;DHT22;5555;59.622;16.556;2023-07-24T03:34:17;10.60;99.90
11005;DHT22;5555;59.622;16.556;2023-07-24T03:36:43;10.70;99.90
11005;DHT22;5555;59.622;16.556;2023-07-24T03:39:12;10.70;99.90
11005;DHT22;5555;59.622;16.556;2023-07-24T03:41:38;10.80;99.90
11005;DHT22;5555;59.622;16.556;2023-07-24T03:44:04;10.80;99.90
11005;DHT22;5555;59.622;16.556;2023-07-24T03:46:31;10.90;99.90
11005;DHT22;5555;59.622;16.556;2023-07-24T03:48:56;11.00;99.90
11005;DHT22;5555;59.622;16.556;2023-07-24T03:51:22;11.00;99.90
11005;DHT22;5555;59.622;16.556;2023-07-24T03:53:48;11.10;99.90
11005;DHT22;5555;59.622;16.556;2023-07-24T03:56:13;11.20;99.90
11005;DHT22;5555;59.622;16.556;2023-07-24T03:58:39;11.30;99.90
11005;DHT22;5555;59.622;16.556;2023-07-24T04:01:05;11.40;99.90
11005;DHT22;5555;59.622;16.556;2023-07-24T04:03:31;11.40;99.90
11005;DHT22;5555;59.622;16.556;2023-07-24T04:05:57;11.50;99.90
11005;DHT22;5555;59.622;16.556;2023-07-24T04:08:23;11.60;99.90
11005;DHT22;5555;59.622;16.556;2023-07-24T04:10:48;11.80;99.90
11005;DHT22;5555;59.622;16.556;2023-07-24T04:13:14;11.90;99.90
11005;DHT22;5555;59.622;16.556;2023-07-24T04:15:39;12.00;99.90
11005;DHT22;5555;59.622;16.556;2023-07-24T04:18:05;12.10;99.90
11005;DHT22;5555;59.622;16.556;2023-07-24T04:20:31;12.20;99.90
11005;DHT22;5555;59.622;16.556;2023-07-24T04:22:56;12.30;99.90
11005;DHT22;5555;59.622;16.556;2023-07-24T04:25:22;12.50;99.90
11005;DHT22;5555;59.622;16.556;2023-07-24T04:27:48;12.60;99.90
11005;DHT22;5555;59.622;16.556;2023-07-24T04:30:13;12.80;99.90
11005;DHT22;5555;59.622;16.556;2023-07-24T04:32:39;12.90;99.90
11005;DHT22;5555;59.622;16.556;2023-07-24T04:35:05;13.10;99.90
11005;DHT22;5555;59.622;16.556;2023-07-24T04:37:31;13.20;99.90
11005;DHT22;5555;59.622;16.556;2023-07-24T04:39:56;13.30;99.90
11005;DHT22;5555;59.622;16.556;2023-07-24T04:42:22;13.40;99.90
11005;DHT22;5555;59.622;16.556;2023-07-24T04:44:48;13.60;99.90
11005;DHT22;5555;59.622;16.556;2023-07-24T04:47:15;13.70;99.90
11005;DHT22;5555;59.622;16.556;2023-07-24T04:49:41;13.90;99.90
11005;DHT22;5555;59.622;16.556;2023-07-24T04:52:06;13.90;99.90
11005;DHT22;5555;59.622;16.556;2023-07-24T04:54:32;14.10;99.90
11005;DHT22;5555;59.622;16.556;2023-07-24T04:56:58;14.20;99.90
11005;DHT22;5555;59.622;16.556;2023-07-24T04:59:23;14.30;99.90
11005;DHT22;5555;59.622;16.556;2023-07-24T05:01:49;14.40;99.90
11005;DHT22;5555;59.622;16.556;2023-07-24T05:04:15;14.50;99.90
11005;DHT22;5555;59.622;16.556;2023-07-24T05:06:41;14.60;99.90
11005;DHT22;5555;59.622;16.556;2023-07-24T05:09:06;14.70;99.90
11005;DHT22;5555;59.622;16.556;2023-07-24T05:11:32;14.80;99.90
11005;DHT22;5555;59.622;16.556;2023-07-24T05:13:57;15.00;99.90
11005;DHT22;5555;59.622;16.556;2023-07-24T05:16:23;15.10;99.90
11005;DHT22;5555;59.622;16.556;2023-07-24T05:18:49;15.30;99.90
11005;DHT22;5555;59.622;16.556;2023-07-24T05:21:14;15.40;99.90
11005;DHT22;5555;59.622;16.556;2023-07-24T05:23:40;15.40;99.90
11005;DHT22;5555;59.622;16.556;2023-07-24T05:26:05;15.50;99.90
11005;DHT22;5555;59.622;16.556;2023-07-24T05:28:32;15.50;99.90
11005;DHT22;5555;59.622;16.556;2023-07-24T05:31:02;15.70;99.90
11005;DHT22;5555;59.622;16.556;2023-07-24T05:33:29;15.90;99.90
11005;DHT22;5555;59.622;16.556;2023-07-24T05:36:03;16.00;99.90
11005;DHT22;5555;59.622;16.556;2023-07-24T05:38:29;16.00;99.90
11005;DHT22;5555;59.622;16.556;2023-07-24T05:41:01;16.00;99.90
11005;DHT22;5555;59.622;16.556;2023-07-24T05:43:27;16.10;99.90
11005;DHT22;5555;59.622;16.556;2023-07-24T05:45:54;16.30;99.90
11005;DHT22;5555;59.622;16.556;2023-07-24T05:48:20;16.30;99.90
11005;DHT22;5555;59.622;16.556;2023-07-24T05:50:46;16.40;99.90
11005;DHT22;5555;59.622;16.556;2023-07-24T05:53:13;16.40;99.90
11005;DHT22;5555;59.622;16.556;2023-07-24T05:55:38;16.60;99.90
11005;DHT22;5555;59.622;16.556;2023-07-24T05:58:04;16.80;99.90
11005;DHT22;5555;59.622;16.556;2023-07-24T06:00:29;16.90;99.90
11005;DHT22;5555;59.622;16.556;2023-07-24T06:02:55;17.00;99.90
11005;DHT22;5555;59.622;16.556;2023-07-24T06:05:20;17.10;99.90
11005;DHT22;5555;59.622;16.556;2023-07-24T06:07:47;17.10;99.90
11005;DHT22;5555;59.622;16.556;2023-07-24T06:10:12;17.20;99.90
11005;DHT22;5555;59.622;16.556;2023-07-24T06:12:38;17.20;99.90
11005;DHT22;5555;59.622;16.556;2023-07-24T06:15:04;17.50;99.90
11005;DHT22;5555;59.622;16.556;2023-07-24T06:17:31;17.50;99.90
11005;DHT22;5555;59.622;16.556;2023-07-24T06:19:56;17.70;99.90
11005;DHT22;5555;59.622;16.556;2023-07-24T06:22:22;17.70;99.90
11005;DHT22;5555;59.622;16.556;2023-07-24T06:24:48;17.90;99.90
11005;DHT22;5555;59.622;16.556;2023-07-24T06:27:14;18.10;99.90
11005;DHT22;5555;59.622;16.556;2023-07-24T06:29:39;18.00;99.90
11005;DHT22;5555;59.622;16.556;2023-07-24T06:32:05;18.00;99.90
11005;DHT22;5555;59.622;16.556;2023-07-24T06:34:31;18.10;99.90
11005;DHT22;5555;59.622;16.556;2023-07-24T06:36:57;18.20;99.90
11005;DHT22;5555;59.622;16.556;2023-07-24T06:39:23;18.30;99.90
11005;DHT22;5555;59.622;16.556;2023-07-24T06:41:50;18.40;99.90
11005;DHT22;5555;59.622;16.556;2023-07-24T06:44:16;18.30;99.90
11005;DHT22;5555;59.622;16.556;2023-07-24T06:46:42;18.30;99.90
11005;DHT22;5555;59.622;16.556;2023-07-24T06:49:07;18.50;99.90
11005;DHT22;5555;59.622;16.556;2023-07-24T06:51:33;18.50;99.90
11005;DHT22;5555;59.622;16.556;2023-07-24T06:53:58;18.70;99.90
11005;DHT22;5555;59.622;16.556;2023-07-24T06:56:24;18.90;99.90
11005;DHT22;5555;59.622;16.556;2023-07-24T06:58:50;18.80;99.90
11005;DHT22;5555;59.622;16.556;2023-07-24T07:01:15;18.90;99.90
11005;DHT22;5555;59.622;16.556;2023-07-24T07:03:41;19.00;99.90
11005;DHT22;5555;59.622;16.556;2023-07-24T07:06:06;19.10;99.90
11005;DHT22;5555;59.622;16.556;2023-07-24T07:08:32;19.20;99.90
11005;DHT22;5555;59.622;16.556;2023-07-24T07:11:01;19.30;99.90
11005;DHT22;5555;59.622;16.556;2023-07-24T07:13:28;19.30;99.90
11005;DHT22;5555;59.622;16.556;2023-07-24T07:15:53;19.50;99.90
11005;DHT22;5555;59.622;16.556;2023-07-24T07:18:19;19.50;99.90
11005;DHT22;5555;59.622;16.556;2023-07-24T07:20:49;19.50;99.90
11005;DHT22;5555;59.622;16.556;2023-07-24T07:23:15;19.60;99.90
11005;DHT22;5555;59.622;16.556;2023-07-24T07:25:41;19.60;99.90
11005;DHT22;5555;59.622;16.556;2023-07-24T07:28:08;19.50;99.90
11005;DHT22;5555;59.622;16.556;2023-07-24T07:30:34;19.70;99.90
11005;DHT22;5555;59.622;16.556;2023-07-24T07:33:00;19.70;99.90
11005;DHT22;5555;59.622;16.556;2023-07-24T07:35:26;19.90;99.90
11005;DHT22;5555;59.622;16.556;2023-07-24T07:37:51;20.20;99.90
11005;DHT22;5555;59.622;16.556;2023-07-24T07:40:17;20.00;99.90
11005;DHT22;5555;59.622;16.556;2023-07-24T07:42:42;20.10;99.90
11005;DHT22;5555;59.622;16.556;2023-07-24T07:45:10;20.00;99.90
11005;DHT22;5555;59.622;16.556;2023-07-24T07:47:36;20.20;99.90
11005;DHT22;5555;59.622;16.556;2023-07-24T07:50:02;20.30;99.90
11005;DHT22;5555;59.622;16.556;2023-07-24T07:52:27;20.40;99.90
11005;DHT22;5555;59.622;16.556;2023-07-24T07:54:53;20.40;99.90
11005;DHT22;5555;59.622;16.556;2023-07-24T07:57:19;20.40;99.90
11005;DHT22;5555;59.622;16.556;2023-07-24T07:59:44;20.40;99.90
11005;DHT22;5555;59.622;16.556;2023-07-24T08:02:10;20.50;99.90
11005;DHT22;5555;59.622;16.556;2023-07-24T08:04:35;20.40;99.90
11005;DHT22;5555;59.622;16.556;2023-07-24T08:07:01;20.00;99.90
11005;DHT22;5555;59.622;16.556;2023-07-24T08:09:27;20.30;99.90
11005;DHT22;5555;59.622;16.556;2023-07-24T08:11:53;20.60;99.90
11005;DHT22;5555;59.622;16.556;2023-07-24T08:14:18;20.70;99.90
11005;DHT22;5555;59.622;16.556;2023-07-24T08:16:44;20.70;99.90
11005;DHT22;5555;59.622;16.556;2023-07-24T08:19:09;20.90;99.90
11005;DHT22;5555;59.622;16.556;2023-07-24T08:21:35;21.00;99.90
11005;DHT22;5555;59.622;16.556;2023-07-24T08:24:01;21.00;99.90
11005;DHT22;5555;59.622;16.556;2023-07-24T08:26:29;20.90;99.90
11005;DHT22;5555;59.622;16.556;2023-07-24T08:28:55;20.80;99.90
11005;DHT22;5555;59.622;16.556;2023-07-24T08:31:21;21.00;99.90
11005;DHT22;5555;59.622;16.556;2023-07-24T08:33:46;21.10;99.90
11005;DHT22;5555;59.622;16.556;2023-07-24T08:36:12;21.40;99.90
11005;DHT22;5555;59.622;16.556;2023-07-24T08:38:38;21.40;99.90
11005;DHT22;5555;59.622;16.556;2023-07-24T08:41:09;21.30;99.90
11005;DHT22;5555;59.622;16.556;2023-07-24T08:43:36;21.20;99.90
11005;DHT22;5555;59.622;16.556;2023-07-24T08:46:02;21.30;99.90
11005;DHT22;5555;59.622;16.556;2023-07-24T08:48:37;21.40;99.90
11005;DHT22;5555;59.622;16.556;2023-07-24T08:51:07;21.30;99.90
11005;DHT22;5555;59.622;16.556;2023-07-24T08:53:35;21.50;99.90
11005;DHT22;5555;59.622;16.556;2023-07-24T08:56:03;21.50;99.90
11005;DHT22;5555;59.622;16.556;2023-07-24T08:58:29;21.50;99.90
11005;DHT22;5555;59.622;16.556;2023-07-24T09:00:56;21.60;99.90
11005;DHT22;5555;59.622;16.556;2023-07-24T09:03:22;21.80;99.90
11005;DHT22;5555;59.622;16.556;2023-07-24T09:05:47;21.70;99.90
11005;DHT22;5555;59.622;16.556;2023-07-24T09:08:13;21.80;99.90
11005;DHT22;5555;59.622;16.556;2023-07-24T09:10:39;21.70;99.90
11005;DHT22;5555;59.622;16.556;2023-07-24T09:13:05;21.60;99.90
11005;DHT22;5555;59.622;16.556;2023-07-24T09:15:43;22.00;99.90
11005;DHT22;5555;59.622;16.556;2023-07-24T09:18:09;22.00;99.90
11005;DHT22;5555;59.622;16.556;2023-07-24T09:20:42;22.30;99.90
11005;DHT22;5555;59.622;16.556;2023-07-24T09:23:09;22.10;99.90
11005;DHT22;5555;59.622;16.556;2023-07-24T09:25:36;22.30;99.90
11005;DHT22;5555;59.622;16.556;2023-07-24T09:28:16;22.40;99.90
11005;DHT22;5555;59.622;16.556;2023-07-24T09:30:54;22.20;99.90
11005;DHT22;5555;59.622;16.556;2023-07-24T09:33:24;21.80;99.90
11005;DHT22;5555;59.622;16.556;2023-07-24T09:36:03;21.80;99.90
11005;DHT22;5555;59.622;16.556;2023-07-24T09:38:29;22.20;99.90
11005;DHT22;5555;59.622;16.556;2023-07-24T09:40:56;22.20;99.90
11005;DHT22;5555;59.622;16.556;2023-07-24T09:43:23;22.40;99.90
11005;DHT22;5555;59.622;16.556;2023-07-24T09:45:50;22.60;99.90
11005;DHT22;5555;59.622;16.556;2023-07-24T09:48:17;22.80;99.90
11005;DHT22;5555;59.622;16.556;2023-07-24T09:50:45;22.60;99.90
11005;DHT22;5555;59.622;16.556;2023-07-24T09:53:33;22.80;99.90
11005;DHT22;5555;59.622;16.556;2023-07-24T09:56:07;23.00;99.90
11005;DHT22;5555;59.622;16.556;2023-07-24T09:58:36;22.40;99.90
11005;DHT22;5555;59.622;16.556;2023-07-24T10:01:03;22.00;99.90
11005;DHT22;5555;59.622;16.556;2023-07-24T10:03:32;22.10;99.90
11005;DHT22;5555;59.622;16.556;2023-07-24T10:05:59;22.30;99.90
11005;DHT22;5555;59.622;16.556;2023-07-24T10:08:25;22.90;99.90
11005;DHT22;5555;59.622;16.556;2023-07-24T10:10:51;23.10;99.90
11005;DHT22;5555;59.622;16.556;2023-07-24T10:13:19;23.60;99.90
11005;DHT22;5555;59.622;16.556;2023-07-24T10:15:47;23.90;99.90
11005;DHT22;5555;59.622;16.556;2023-07-24T10:18:14;24.00;99.90
11005;DHT22;5555;59.622;16.556;2023-07-24T10:20:41;23.60;99.90
11005;DHT22;5555;59.622;16.556;2023-07-24T10:23:11;23.40;99.90
11005;DHT22;5555;59.622;16.556;2023-07-24T10:25:41;23.40;99.90
11005;DHT22;5555;59.622;16.556;2023-07-24T10:28:11;23.70;99.90
11005;DHT22;5555;59.622;16.556;2023-07-24T10:30:40;23.60;99.90
11005;DHT22;5555;59.622;16.556;2023-07-24T10:33:20;23.00;99.90
11005;DHT22;5555;59.622;16.556;2023-07-24T10:35:49;23.20;99.90
11005;DHT22;5555;59.622;16.556;2023-07-24T10:38:15;23.70;99.90
11005;DHT22;5555;59.622;16.556;2023-07-24T10:40:42;24.20;99.90
11005;DHT22;5555;59.622;16.556;2023-07-24T10:43:13;24.30;99.90
11005;DHT22;5555;59.622;16.556;2023-07-24T10:45:50;24.10;99.90
11005;DHT22;5555;59.622;16.556;2023-07-24T10:48:18;24.20;99.90
11005;DHT22;5555;59.622;16.556;2023-07-24T10:50:47;24.40;99.90
11005;DHT22;5555;59.622;16.556;2023-07-24T10:53:22;23.90;99.90
11005;DHT22;5555;59.622;16.556;2023-07-24T10:55:49;24.40;99.90
11005;DHT22;5555;59.622;16.556;2023-07-24T10:58:18;23.80;99.90
11005;DHT22;5555;59.622;16.556;2023-07-24T11:00:44;23.70;99.90
11005;DHT22;5555;59.622;16.556;2023-07-24T11:03:11;23.70;99.90
11005;DHT22;5555;59.622;16.556;2023-07-24T11:05:44;23.30;99.90
11005;DHT22;5555;59.622;16.556;2023-07-24T11:08:18;23.60;99.90
11005;DHT22;5555;59.622;16.556;2023-07-24T11:10:55;23.40;99.90
11005;DHT22;5555;59.622;16.556;2023-07-24T11:13:27;23.20;99.90
11005;DHT22;5555;59.622;16.556;2023-07-24T11:15:54;23.30;99.90
11005;DHT22;5555;59.622;16.556;2023-07-24T11:18:21;24.00;99.90
11005;DHT22;5555;59.622;16.556;2023-07-24T11:20:53;24.60;99.90
11005;DHT22;5555;59.622;16.556;2023-07-24T11:23:19;24.60;99.90
11005;DHT22;5555;59.622;16.556;2023-07-24T11:25:45;25.40;99.90
11005;DHT22;5555;59.622;16.556;2023-07-24T11:28:13;25.20;99.90
11005;DHT22;5555;59.622;16.556;2023-07-24T11:30:39;24.80;99.90
11005;DHT22;5555;59.622;16.556;2023-07-24T11:33:07;25.10;99.90
11005;DHT22;5555;59.622;16.556;2023-07-24T11:35:34;25.60;99.90
11005;DHT22;5555;59.622;16.556;2023-07-24T11:38:01;25.30;99.80
11005;DHT22;5555;59.622;16.556;2023-07-24T11:40:41;25.70;99.80
11005;DHT22;5555;59.622;16.556;2023-07-24T11:43:18;25.50;99.90
11005;DHT22;5555;59.622;16.556;2023-07-24T11:45:45;26.30;99.90
11005;DHT22;5555;59.622;16.556;2023-07-24T11:48:12;26.40;98.30
11005;DHT22;5555;59.622;16.556;2023-07-24T11:50:49;25.80;96.70
11005;DHT22;5555;59.622;16.556;2023-07-24T11:55:49;24.60;96.40
11005;DHT22;5555;59.622;16.556;2023-07-24T11:58:16;25.00;97.60
11005;DHT22;5555;59.622;16.556;2023-07-24T12:00:42;25.20;94.80
11005;DHT22;5555;59.622;16.556;2023-07-24T12:03:07;25.00;96.90
11005;DHT22;5555;59.622;16.556;2023-07-24T12:05:43;24.90;96.10
11005;DHT22;5555;59.622;16.556;2023-07-24T12:08:10;24.80;96.10
11005;DHT22;5555;59.622;16.556;2023-07-24T12:10:40;25.60;97.10
11005;DHT22;5555;59.622;16.556;2023-07-24T12:13:06;26.70;95.60
11005;DHT22;5555;59.622;16.556;2023-07-24T12:15:33;26.90;95.40
11005;DHT22;5555;59.622;16.556;2023-07-24T12:18:04;26.80;97.00
11005;DHT22;5555;59.622;16.556;2023-07-24T12:20:30;26.10;98.00
11005;DHT22;5555;59.622;16.556;2023-07-24T12:22:57;25.90;97.20
11005;DHT22;5555;59.622;16.556;2023-07-24T12:25:23;25.80;96.20
11005;DHT22;5555;59.622;16.556;2023-07-24T12:27:49;25.40;96.10
11005;DHT22;5555;59.622;16.556;2023-07-24T12:30:14;24.50;98.50
11005;DHT22;5555;59.622;16.556;2023-07-24T12:32:40;24.20;98.10
11005;DHT22;5555;59.622;16.556;2023-07-24T12:35:07;24.00;98.40
11005;DHT22;5555;59.622;16.556;2023-07-24T12:37:33;23.90;99.90
11005;DHT22;5555;59.622;16.556;2023-07-24T12:39:59;23.80;99.90
11005;DHT22;5555;59.622;16.556;2023-07-24T12:42:24;23.60;99.90
11005;DHT22;5555;59.622;16.556;2023-07-24T12:44:51;23.90;99.80
11005;DHT22;5555;59.622;16.556;2023-07-24T12:47:16;23.70;99.90
11005;DHT22;5555;59.622;16.556;2023-07-24T12:49:42;24.20;99.90
11005;DHT22;5555;59.622;16.556;2023-07-24T12:52:08;25.10;99.90
11005;DHT22;5555;59.622;16.556;2023-07-24T12:54:34;25.60;99.90
11005;DHT22;5555;59.622;16.556;2023-07-24T12:57:01;26.10;99.50
11005;DHT22;5555;59.622;16.556;2023-07-24T12:59:27;27.10;98.20
11005;DHT22;5555;59.622;16.556;2023-07-24T13:01:53;26.30;98.30
11005;DHT22;5555;59.622;16.556;2023-07-24T13:04:19;26.00;98.50
11005;DHT22;5555;59.622;16.556;2023-07-24T13:06:45;26.60;96.80
11005;DHT22;5555;59.622;16.556;2023-07-24T13:09:11;27.50;95.50
11005;DHT22;5555;59.622;16.556;2023-07-24T13:11:36;28.00;95.10
11005;DHT22;5555;59.622;16.556;2023-07-24T13:14:02;27.70;95.70
11005;DHT22;5555;59.622;16.556;2023-07-24T13:16:28;27.90;95.70
11005;DHT22;5555;59.622;16.556;2023-07-24T13:18:53;28.70;94.20
11005;DHT22;5555;59.622;16.556;2023-07-24T13:21:19;29.00;93.50
11005;DHT22;5555;59.622;16.556;2023-07-24T13:23:44;29.60;94.60
11005;DHT22;5555;59.622;16.556;2023-07-24T13:26:11;29.00;96.30
11005;DHT22;5555;59.622;16.556;2023-07-24T13:28:38;28.60;92.60
11005;DHT22;5555;59.622;16.556;2023-07-24T13:31:16;28.70;92.20
11005;DHT22;5555;59.622;16.556;2023-07-24T13:33:42;28.50;91.40
11005;DHT22;5555;59.622;16.556;2023-07-24T13:36:08;28.50;91.40
11005;DHT22;5555;59.622;16.556;2023-07-24T13:38:34;28.70;90.20
11005;DHT22;5555;59.622;16.556;2023-07-24T13:41:00;27.80;88.40
11005;DHT22;5555;59.622;16.556;2023-07-24T13:43:27;28.50;90.80
11005;DHT22;5555;59.622;16.556;2023-07-24T13:45:52;28.20;90.00
11005;DHT22;5555;59.622;16.556;2023-07-24T13:48:18;28.60;90.10
11005;DHT22;5555;59.622;16.556;2023-07-24T13:50:44;29.20;89.40
11005;DHT22;5555;59.622;16.556;2023-07-24T13:53:10;29.20;82.10
11005;DHT22;5555;59.622;16.556;2023-07-24T13:55:35;29.00;82.30
11005;DHT22;5555;59.622;16.556;2023-07-24T13:58:01;28.80;84.80
11005;DHT22;5555;59.622;16.556;2023-07-24T14:00:27;29.00;83.70
11005;DHT22;5555;59.622;16.556;2023-07-24T14:02:52;29.50;81.70
11005;DHT22;5555;59.622;16.556;2023-07-24T14:05:18;29.70;83.10
11005;DHT22;5555;59.622;16.556;2023-07-24T14:07:44;29.20;82.90
11005;DHT22;5555;59.622;16.556;2023-07-24T14:10:10;28.20;82.40
11005;DHT22;5555;59.622;16.556;2023-07-24T14:12:35;28.40;84.00
11005;DHT22;5555;59.622;16.556;2023-07-24T14:15:01;29.00;82.30
11005;DHT22;5555;59.622;16.556;2023-07-24T14:17:27;28.50;83.00
11005;DHT22;5555;59.622;16.556;2023-07-24T14:19:53;28.70;84.60
11005;DHT22;5555;59.622;16.556;2023-07-24T14:22:19;28.70;83.80
11005;DHT22;5555;59.622;16.556;2023-07-24T14:24:45;28.60;82.10
11005;DHT22;5555;59.622;16.556;2023-07-24T14:27:12;28.40;83.50
11005;DHT22;5555;59.622;16.556;2023-07-24T14:29:37;29.10;87.10
11005;DHT22;5555;59.622;16.556;2023-07-24T14:32:04;28.90;81.60
11005;DHT22;5555;59.622;16.556;2023-07-24T14:34:30;28.10;83.60
11005;DHT22;5555;59.622;16.556;2023-07-24T14:36:55;27.00;84.20
11005;DHT22;5555;59.622;16.556;2023-07-24T14:39:21;26.20;84.40
11005;DHT22;5555;59.622;16.556;2023-07-24T14:41:47;26.00;85.60
11005;DHT22;5555;59.622;16.556;2023-07-24T14:44:12;25.90;83.80
11005;DHT22;5555;59.622;16.556;2023-07-24T14:46:38;26.10;85.70
11005;DHT22;5555;59.622;16.556;2023-07-24T14:49:03;26.00;85.90
11005;DHT22;5555;59.622;16.556;2023-07-24T14:51:29;25.60;85.50
11005;DHT22;5555;59.622;16.556;2023-07-24T14:53:54;25.60;87.50
11005;DHT22;5555;59.622;16.556;2023-07-24T14:56:20;25.10;86.00
11005;DHT22;5555;59.622;16.556;2023-07-24T14:58:46;24.90;89.60
11005;DHT22;5555;59.622;16.556;2023-07-24T15:01:13;25.40;89.20
11005;DHT22;5555;59.622;16.556;2023-07-24T15:03:38;24.50;90.10
11005;DHT22;5555;59.622;16.556;2023-07-24T15:06:04;24.40;90.90
11005;DHT22;5555;59.622;16.556;2023-07-24T15:08:32;24.40;90.40
11005;DHT22;5555;59.622;16.556;2023-07-24T15:10:58;24.50;91.40
11005;DHT22;5555;59.622;16.556;2023-07-24T15:13:23;24.40;92.00
11005;DHT22;5555;59.622;16.556;2023-07-24T15:15:49;24.10;92.00
11005;DHT22;5555;59.622;16.556;2023-07-24T15:18:15;23.70;93.30
11005;DHT22;5555;59.622;16.556;2023-07-24T15:20:41;23.60;93.60
11005;DHT22;5555;59.622;16.556;2023-07-24T15:23:06;23.90;93.70
11005;DHT22;5555;59.622;16.556;2023-07-24T15:25:32;23.90;90.00
11005;DHT22;5555;59.622;16.556;2023-07-24T15:27:58;24.20;90.20
11005;DHT22;5555;59.622;16.556;2023-07-24T15:30:27;24.80;90.20
11005;DHT22;5555;59.622;16.556;2023-07-24T15:32:52;25.50;87.70